Westport, Wisconsin
Current Conditions -  °F | °C
As of 12:55 PM on Sunday 23 Nov 2014 (Local Time) from KC29 Reporting Station
Overcast Overcast  
Wind Chill: 46°   Ceiling: 500
Heat Index: 49°   Visibility: 7mi
Dew Point: 48°   Wind: 8mph
Humidity: 97%   Direction: 180°S
Pressure: 29.5"   Gusts: NA
Location:  43.1852°N, 89.4585°W
Report Text: KC29 231855Z AUTO 18007KT 7SM OVC005 10/09 A2950 RMK AO1 P0002 T00960091
Loading
Personal Weather Stations






























Interactive Weather Map New forecast layout! Learn more

10-Day Weather Forecast

Advertisements
Track Severe Weather on mobile